Portada
METAR-TAF:

METAR-TAF

Aeroports :

Naval Auxiliary Landing Field Fentress

Chesapeake, Virgínia, Estats Units d'Amèrica

latitud: 36-42-03N, longitud: 076-07-42W, altitud: 3 m

Observació

L'informe es va fer fa 35 minuts, a les 04:56 UTC
Vent calma
Temperatura 23°C
Humitat 100%
Pressió 1019 hPa
Visibilitat: 16.1 km
Cel clar

METAR: KNFE 080456Z AUTO 00000KT 10SM CLR 23/23 A3010 RMK AO2 RAE24 TSE56 SLP193 P0011 T02330233 403170217

Hora: 01:31 (05:31 UTC)


TAF: manca

Observacions i pronòstics meteorològics de més de 4000 aeroports (METAR i TAF).

Les estacions disponibles són els punts grocs i vermells al mapa.

Posi el ratolí al punt desitjat per veure el nom de l'estació.

Feu clic per veure les observacions i els pronòstics meteorològics.

Per canviar el mapa: feu clic els botons verds amb una creu de color negre per apropar; al botó verd amb un guió per allunyar la imatge; o en les fletxes verdes per a mapes adjacents.


METAR-TAF: